createdAt,value
2023-01-20T00:00:16.946Z,0.00
2023-01-20T00:01:16.920Z,0.00
2023-01-20T00:02:16.998Z,0.00
2023-01-20T00:03:16.938Z,0.00
2023-01-20T00:04:16.934Z,0.00
2023-01-20T00:05:16.870Z,0.00
2023-01-20T00:06:16.872Z,0.00
2023-01-20T00:07:16.838Z,0.00
2023-01-20T00:08:16.851Z,0.00
2023-01-20T00:09:16.831Z,0.00
2023-01-20T00:10:16.842Z,0.00
2023-01-20T00:11:16.787Z,0.00
2023-01-20T00:12:16.769Z,0.00
2023-01-20T00:13:16.746Z,0.00
2023-01-20T00:14:16.736Z,0.00
2023-01-20T00:15:19.758Z,0.00
2023-01-20T00:16:19.776Z,0.00
2023-01-20T00:17:16.695Z,0.00
2023-01-20T00:18:16.691Z,0.00
2023-01-20T00:19:16.668Z,0.00
2023-01-20T00:20:16.697Z,0.00
2023-01-20T00:21:16.707Z,0.00
2023-01-20T00:22:16.641Z,0.00
2023-01-20T00:23:16.617Z,0.00
2023-01-20T00:24:16.618Z,0.00
2023-01-20T00:25:16.819Z,0.00
2023-01-20T00:26:16.581Z,0.00
2023-01-20T00:27:17.309Z,0.00
2023-01-20T00:28:16.552Z,0.00
2023-01-20T00:29:16.532Z,0.00
2023-01-20T00:30:16.547Z,0.00
2023-01-20T00:31:16.533Z,0.00
2023-01-20T00:32:16.490Z,0.00
2023-01-20T00:33:16.470Z,0.00
2023-01-20T00:34:16.462Z,0.00
2023-01-20T00:35:19.512Z,0.00
2023-01-20T00:36:19.508Z,0.00
2023-01-20T00:37:16.421Z,0.00
2023-01-20T00:38:16.414Z,0.00
2023-01-20T00:39:16.411Z,0.00
2023-01-20T00:40:16.384Z,0.00
2023-01-20T00:41:16.444Z,0.00
2023-01-20T00:42:16.355Z,0.00
2023-01-20T00:43:16.344Z,0.00
2023-01-20T00:44:16.343Z,0.00
2023-01-20T00:45:16.337Z,0.00
2023-01-20T00:46:16.369Z,0.00
2023-01-20T00:47:16.323Z,0.00
2023-01-20T00:48:16.277Z,0.00
2023-01-20T00:49:16.267Z,0.00
2023-01-20T00:50:16.255Z,0.00
2023-01-20T00:51:16.238Z,0.00
2023-01-20T00:52:16.252Z,0.00
2023-01-20T00:53:16.211Z,0.00
2023-01-20T00:54:16.245Z,0.00
2023-01-20T00:55:19.178Z,0.00
2023-01-20T00:56:19.198Z,0.00
2023-01-20T00:57:16.145Z,0.00
2023-01-20T00:58:16.132Z,0.00
2023-01-20T00:59:16.128Z,0.00
2023-01-20T01:00:16.181Z,0.00
2023-01-20T01:01:16.188Z,0.00
2023-01-20T01:02:16.198Z,0.00
2023-01-20T01:03:16.065Z,0.00
2023-01-20T01:04:16.045Z,0.00
2023-01-20T01:05:16.027Z,0.00
2023-01-20T01:06:16.073Z,0.00
2023-01-20T01:07:16.004Z,0.00
2023-01-20T01:08:15.990Z,0.00
2023-01-20T01:09:15.979Z,0.00
2023-01-20T01:10:15.980Z,0.00
2023-01-20T01:11:15.938Z,0.00
2023-01-20T01:12:15.960Z,0.00
2023-01-20T01:13:15.927Z,0.00
2023-01-20T01:14:15.918Z,0.00
2023-01-20T01:15:19.027Z,0.00
2023-01-20T01:16:18.996Z,0.00
2023-01-20T01:17:15.867Z,0.00
2023-01-20T01:18:15.862Z,0.00
2023-01-20T01:19:15.853Z,0.00
2023-01-20T01:20:15.841Z,0.00
2023-01-20T01:21:15.817Z,0.00
2023-01-20T01:22:15.839Z,0.00
2023-01-20T01:23:15.789Z,0.00
2023-01-20T01:24:15.779Z,0.00
2023-01-20T01:25:15.867Z,0.00
2023-01-20T01:26:15.758Z,0.00
2023-01-20T01:27:15.750Z,0.00
2023-01-20T01:28:15.771Z,0.00
2023-01-20T01:29:15.700Z,0.00
2023-01-20T01:30:15.711Z,0.00
2023-01-20T01:31:15.736Z,0.00
2023-01-20T01:32:15.665Z,0.00
2023-01-20T01:33:15.683Z,0.00
2023-01-20T01:34:15.687Z,0.00
2023-01-20T01:35:18.613Z,0.00
2023-01-20T01:36:18.637Z,0.00
2023-01-20T01:37:15.593Z,0.00
2023-01-20T01:38:15.572Z,0.00
2023-01-20T01:39:15.560Z,0.00
2023-01-20T01:40:15.621Z,0.00
2023-01-20T01:41:15.541Z,0.00
2023-01-20T01:42:15.538Z,0.00
2023-01-20T01:43:15.513Z,0.00
2023-01-20T01:44:15.501Z,0.00
2023-01-20T01:45:15.694Z,0.00
2023-01-20T01:46:15.503Z,0.00
2023-01-20T01:47:15.455Z,0.00
2023-01-20T01:48:15.463Z,0.00
2023-01-20T01:49:15.436Z,0.00
2023-01-20T01:50:15.425Z,0.00
2023-01-20T01:51:15.463Z,0.00
2023-01-20T01:52:15.414Z,0.00
2023-01-20T01:53:15.388Z,0.00
2023-01-20T01:54:15.385Z,0.00
2023-01-20T01:55:18.363Z,0.00
2023-01-20T01:56:18.385Z,0.00
2023-01-20T01:57:15.357Z,0.00
2023-01-20T01:58:15.324Z,0.00
2023-01-20T01:59:15.316Z,0.00
2023-01-20T02:00:15.297Z,0.00
2023-01-20T02:01:15.373Z,0.00
2023-01-20T02:02:15.324Z,0.00
2023-01-20T02:03:15.256Z,0.00
2023-01-20T02:04:15.249Z,0.00
2023-01-20T02:05:15.532Z,0.00
2023-01-20T02:06:15.246Z,0.00
2023-01-20T02:07:15.230Z,0.00
2023-01-20T02:08:15.237Z,0.00
2023-01-20T02:09:15.209Z,0.00
2023-01-20T02:10:15.166Z,0.00
2023-01-20T02:11:15.151Z,0.00
2023-01-20T02:12:15.140Z,0.00
2023-01-20T02:13:15.153Z,0.00
2023-01-20T02:14:15.171Z,0.00
2023-01-20T02:15:18.114Z,0.00
2023-01-20T02:16:18.128Z,0.00
2023-01-20T02:17:15.078Z,0.00
2023-01-20T02:18:15.070Z,0.00
2023-01-20T02:19:15.057Z,0.00
2023-01-20T02:20:15.081Z,0.00
2023-01-20T02:21:15.044Z,0.00
2023-01-20T02:22:15.021Z,0.00
2023-01-20T02:23:15.004Z,0.00
2023-01-20T02:24:14.985Z,0.00
2023-01-20T02:25:15.237Z,0.00
2023-01-20T02:26:15.019Z,0.00
2023-01-20T02:27:14.951Z,0.00
2023-01-20T02:28:14.932Z,0.00
2023-01-20T02:29:14.921Z,0.00
2023-01-20T02:30:14.936Z,0.00
2023-01-20T02:31:14.930Z,0.00
2023-01-20T02:32:14.913Z,0.00
2023-01-20T02:33:14.868Z,0.00
2023-01-20T02:34:14.859Z,0.00
2023-01-20T02:35:17.832Z,0.00
2023-01-20T02:36:17.929Z,0.00
2023-01-20T02:37:14.823Z,0.00
2023-01-20T02:38:14.808Z,0.00
2023-01-20T02:39:27.425Z,0.00
2023-01-20T02:40:15.780Z,0.00
2023-01-20T02:41:14.762Z,0.00
2023-01-20T02:42:14.802Z,0.00
2023-01-20T02:43:14.743Z,0.00
2023-01-20T02:44:14.713Z,0.00
2023-01-20T02:45:15.026Z,0.00
2023-01-20T02:46:14.702Z,0.00
2023-01-20T02:47:14.674Z,0.00
2023-01-20T02:48:14.713Z,0.00
2023-01-20T02:49:14.654Z,0.00
2023-01-20T02:50:14.642Z,0.00
2023-01-20T02:51:14.638Z,0.00
2023-01-20T02:52:14.609Z,0.00
2023-01-20T02:53:14.604Z,0.00
2023-01-20T02:54:14.634Z,0.00
2023-01-20T02:55:17.575Z,0.00
2023-01-20T02:56:17.581Z,0.00
2023-01-20T02:57:14.554Z,0.00
2023-01-20T02:58:14.549Z,0.00
2023-01-20T02:59:14.515Z,0.00
2023-01-20T03:00:14.548Z,0.00
2023-01-20T03:01:14.751Z,0.00
2023-01-20T03:02:14.486Z,0.00
2023-01-20T03:03:14.464Z,0.00
2023-01-20T03:04:14.503Z,0.00
2023-01-20T03:05:14.791Z,0.00
2023-01-20T03:06:14.469Z,0.00
2023-01-20T03:07:14.427Z,0.00
2023-01-20T03:08:14.395Z,0.00
2023-01-20T03:09:14.385Z,0.00
2023-01-20T03:10:14.380Z,0.00
2023-01-20T03:11:14.396Z,0.00
2023-01-20T03:12:14.347Z,0.00
2023-01-20T03:13:14.336Z,0.00
2023-01-20T03:14:14.327Z,0.00
2023-01-20T03:15:17.317Z,0.00
2023-01-20T03:16:17.393Z,0.00
2023-01-20T03:17:14.286Z,0.00
2023-01-20T03:18:14.267Z,0.00
2023-01-20T03:19:14.260Z,0.00
2023-01-20T03:20:14.248Z,0.00
2023-01-20T03:21:14.313Z,0.00
2023-01-20T03:22:14.226Z,0.00
2023-01-20T03:23:14.202Z,0.00
2023-01-20T03:24:14.178Z,0.00
2023-01-20T03:25:14.450Z,0.00
2023-01-20T03:26:14.156Z,0.00
2023-01-20T03:27:14.188Z,0.00
2023-01-20T03:28:14.131Z,0.00
2023-01-20T03:29:14.121Z,0.00
2023-01-20T03:30:14.111Z,0.00
2023-01-20T03:31:14.259Z,0.00
2023-01-20T03:32:14.085Z,0.00
2023-01-20T03:33:14.091Z,0.00
2023-01-20T03:34:14.043Z,0.00
2023-01-20T03:35:17.381Z,0.00
2023-01-20T03:36:17.046Z,0.00
2023-01-20T03:37:14.049Z,0.00
2023-01-20T03:38:14.023Z,0.00
2023-01-20T03:39:13.992Z,0.00
2023-01-20T03:40:13.989Z,0.00
2023-01-20T03:41:13.951Z,0.00
2023-01-20T03:42:13.974Z,0.00
2023-01-20T03:43:13.967Z,0.00
2023-01-20T03:44:13.933Z,0.00
2023-01-20T03:45:14.217Z,0.00
2023-01-20T03:46:13.975Z,0.00
2023-01-20T03:47:13.872Z,0.00
2023-01-20T03:48:13.855Z,0.00
2023-01-20T03:49:13.873Z,0.00
2023-01-20T03:50:13.832Z,0.00
2023-01-20T03:51:13.818Z,0.00
2023-01-20T03:52:13.833Z,0.00
2023-01-20T03:53:13.806Z,0.00
2023-01-20T03:54:13.833Z,0.00
2023-01-20T03:55:17.291Z,0.00
2023-01-20T03:56:16.767Z,0.00
2023-01-20T03:57:13.744Z,0.00
2023-01-20T03:58:13.749Z,0.00
2023-01-20T03:59:13.713Z,0.00
2023-01-20T04:00:13.727Z,0.00
2023-01-20T04:01:18.436Z,0.00
2023-01-20T04:02:14.859Z,0.00
2023-01-20T04:03:13.693Z,0.00
2023-01-20T04:04:13.625Z,0.00
2023-01-20T04:05:14.055Z,0.00
2023-01-20T04:06:13.617Z,0.00
2023-01-20T04:07:13.586Z,0.00
2023-01-20T04:08:13.595Z,0.00
2023-01-20T04:09:13.587Z,0.00
2023-01-20T04:10:13.566Z,0.00
2023-01-20T04:11:13.576Z,0.00
2023-01-20T04:12:13.601Z,0.00
2023-01-20T04:13:13.508Z,0.00
2023-01-20T04:14:13.507Z,0.00
2023-01-20T04:15:17.052Z,0.00
2023-01-20T04:16:16.508Z,0.00
2023-01-20T04:17:13.468Z,0.00
2023-01-20T04:18:13.485Z,0.00
2023-01-20T04:19:13.438Z,0.00
2023-01-20T04:20:13.439Z,0.00
2023-01-20T04:21:13.408Z,0.00
2023-01-20T04:22:13.441Z,0.00
2023-01-20T04:23:13.380Z,0.00
2023-01-20T04:24:13.369Z,0.00
2023-01-20T04:25:13.834Z,0.00
2023-01-20T04:26:13.343Z,0.00
2023-01-20T04:27:13.327Z,0.00
2023-01-20T04:28:13.349Z,0.00
2023-01-20T04:29:13.428Z,0.00
2023-01-20T04:30:13.305Z,0.00
2023-01-20T04:31:28.655Z,0.00
2023-01-20T04:32:14.268Z,0.00
2023-01-20T04:33:13.280Z,0.00
2023-01-20T04:34:13.240Z,0.00
2023-01-20T04:35:16.649Z,0.00
2023-01-20T04:36:16.230Z,0.00
2023-01-20T04:37:13.207Z,0.00
2023-01-20T04:38:13.237Z,0.00
2023-01-20T04:39:13.170Z,0.00
2023-01-20T04:40:13.160Z,0.00
2023-01-20T04:41:13.146Z,0.00
2023-01-20T04:42:13.131Z,0.00
2023-01-20T04:43:13.121Z,0.00
2023-01-20T04:44:13.144Z,0.00
2023-01-20T04:45:13.332Z,0.00
2023-01-20T04:46:13.113Z,0.00
2023-01-20T04:47:13.062Z,0.00
2023-01-20T04:48:13.053Z,0.00
2023-01-20T04:49:13.032Z,0.00
2023-01-20T04:50:13.053Z,0.00
2023-01-20T04:51:13.027Z,0.00
2023-01-20T04:52:13.037Z,0.00
2023-01-20T04:53:12.973Z,0.00
2023-01-20T04:54:12.979Z,0.00
2023-01-20T04:55:16.317Z,0.00
2023-01-20T04:56:15.994Z,0.00
2023-01-20T04:57:12.937Z,0.00
2023-01-20T04:58:12.954Z,0.00
2023-01-20T04:59:12.896Z,0.00
2023-01-20T05:00:12.889Z,0.00
2023-01-20T05:01:12.969Z,0.00
2023-01-20T05:02:12.939Z,0.00
2023-01-20T05:03:12.844Z,0.00
2023-01-20T05:04:12.915Z,0.00
2023-01-20T05:05:13.371Z,0.00
2023-01-20T05:06:12.825Z,0.00
2023-01-20T05:07:12.798Z,0.00
2023-01-20T05:08:12.785Z,0.00
2023-01-20T05:09:12.773Z,0.00
2023-01-20T05:10:13.337Z,0.00
2023-01-20T05:11:12.755Z,0.00
2023-01-20T05:12:12.741Z,0.00
2023-01-20T05:13:12.705Z,0.00
2023-01-20T05:14:12.693Z,0.00
2023-01-20T05:15:16.041Z,0.00
2023-01-20T05:16:15.751Z,0.00
2023-01-20T05:17:12.649Z,0.00
2023-01-20T05:18:12.655Z,0.00
2023-01-20T05:19:12.975Z,0.00
2023-01-20T05:20:12.613Z,0.00
2023-01-20T05:21:12.626Z,0.00
2023-01-20T05:22:12.606Z,0.00
2023-01-20T05:23:12.599Z,0.00
2023-01-20T05:24:12.577Z,0.00
2023-01-20T05:25:12.918Z,0.00
2023-01-20T05:26:12.551Z,0.00
2023-01-20T05:27:12.538Z,0.00
2023-01-20T05:28:12.526Z,0.00
2023-01-20T05:29:12.508Z,0.00
2023-01-20T05:30:12.487Z,0.00
2023-01-20T05:31:12.574Z,0.00
2023-01-20T05:32:12.459Z,0.00
2023-01-20T05:33:12.449Z,0.00
2023-01-20T05:34:12.459Z,0.00
2023-01-20T05:35:15.696Z,0.00
2023-01-20T05:36:15.464Z,0.00
2023-01-20T05:37:12.399Z,0.00
2023-01-20T05:38:12.379Z,0.00
2023-01-20T05:39:12.352Z,0.00
2023-01-20T05:40:12.364Z,0.00
2023-01-20T05:41:12.358Z,0.00
2023-01-20T05:42:12.323Z,0.00
2023-01-20T05:43:13.161Z,0.00
2023-01-20T05:44:12.298Z,0.00
2023-01-20T05:45:12.398Z,0.00
2023-01-20T05:46:12.329Z,0.00
2023-01-20T05:47:12.247Z,0.00
2023-01-20T05:48:12.232Z,0.00
2023-01-20T05:49:12.236Z,0.00
2023-01-20T05:50:12.240Z,0.00
2023-01-20T05:51:12.190Z,0.00
2023-01-20T05:52:12.249Z,0.00
2023-01-20T05:53:12.163Z,0.00
2023-01-20T05:54:12.183Z,0.00
2023-01-20T05:55:15.414Z,0.00
2023-01-20T05:56:15.176Z,0.00
2023-01-20T05:57:12.115Z,0.00
2023-01-20T05:58:12.164Z,0.00
2023-01-20T05:59:12.074Z,0.00
2023-01-20T06:00:12.075Z,0.00
2023-01-20T06:01:12.120Z,0.00
2023-01-20T06:02:12.049Z,0.00
2023-01-20T06:03:12.024Z,0.00
2023-01-20T06:04:12.045Z,0.00
2023-01-20T06:05:12.124Z,0.00
2023-01-20T06:06:12.025Z,0.00
2023-01-20T06:07:11.975Z,0.00
2023-01-20T06:08:11.965Z,0.00
2023-01-20T06:09:11.996Z,0.00
2023-01-20T06:10:11.946Z,0.00
2023-01-20T06:11:11.934Z,0.00
2023-01-20T06:12:11.914Z,0.00
2023-01-20T06:13:11.888Z,0.00
2023-01-20T06:14:11.885Z,0.00
2023-01-20T06:15:15.100Z,0.00
2023-01-20T06:16:14.906Z,0.00
2023-01-20T06:17:11.855Z,0.00
2023-01-20T06:18:11.840Z,0.00
2023-01-20T06:19:11.814Z,0.00
2023-01-20T06:20:11.828Z,0.00
2023-01-20T06:21:11.807Z,0.00
2023-01-20T06:22:11.786Z,0.00
2023-01-20T06:23:11.760Z,0.00
2023-01-20T06:24:11.756Z,0.00
2023-01-20T06:25:11.759Z,0.00
2023-01-20T06:26:11.788Z,0.00
2023-01-20T06:27:13.611Z,0.00
2023-01-20T06:28:11.711Z,0.00
2023-01-20T06:29:11.681Z,0.00
2023-01-20T06:30:11.674Z,0.00
2023-01-20T06:31:11.756Z,0.00
2023-01-20T06:32:11.700Z,0.00
2023-01-20T06:33:11.629Z,0.00
2023-01-20T06:34:11.619Z,0.00
2023-01-20T06:35:14.808Z,0.00
2023-01-20T06:36:14.603Z,0.00
2023-01-20T06:37:11.570Z,0.00
2023-01-20T06:38:11.597Z,0.00
2023-01-20T06:39:11.554Z,0.00
2023-01-20T06:40:11.530Z,0.00
2023-01-20T06:41:11.510Z,0.00
2023-01-20T06:42:11.737Z,0.00
2023-01-20T06:43:11.511Z,0.00
2023-01-20T06:44:11.481Z,0.00
2023-01-20T06:45:11.478Z,0.00
2023-01-20T06:46:11.476Z,0.00
2023-01-20T06:47:11.444Z,0.00
2023-01-20T06:48:11.492Z,0.00
2023-01-20T06:49:11.436Z,0.00
2023-01-20T06:50:11.412Z,0.00
2023-01-20T06:51:11.389Z,0.00
2023-01-20T06:52:11.386Z,0.00
2023-01-20T06:53:11.367Z,0.00
2023-01-20T06:54:11.372Z,0.00
2023-01-20T06:55:14.635Z,0.00
2023-01-20T06:56:14.342Z,0.00
2023-01-20T06:57:11.352Z,0.00
2023-01-20T06:58:11.293Z,0.00
2023-01-20T06:59:11.272Z,0.00
2023-01-20T07:00:11.275Z,0.00
2023-01-20T07:01:11.340Z,0.00
2023-01-20T07:02:11.355Z,0.00
2023-01-20T07:03:13.958Z,0.00
2023-01-20T07:04:11.199Z,0.00
2023-01-20T07:05:11.212Z,0.00
2023-01-20T07:06:11.174Z,0.00
2023-01-20T07:07:11.185Z,0.00
2023-01-20T07:08:11.143Z,0.00
2023-01-20T07:09:11.134Z,0.00
2023-01-20T07:10:11.114Z,0.00
2023-01-20T07:11:11.096Z,0.00
2023-01-20T07:12:11.121Z,0.00
2023-01-20T07:13:11.072Z,0.00
2023-01-20T07:14:11.072Z,0.00
2023-01-20T07:15:14.320Z,0.00
2023-01-20T07:16:15.891Z,0.00
2023-01-20T07:17:11.052Z,0.00
2023-01-20T07:18:11.012Z,0.00
2023-01-20T07:19:10.986Z,0.00
2023-01-20T07:20:10.989Z,0.00
2023-01-20T07:21:10.979Z,0.00
2023-01-20T07:22:11.026Z,0.00
2023-01-20T07:23:10.952Z,0.00
2023-01-20T07:24:10.917Z,0.00
2023-01-20T07:25:10.906Z,0.00
2023-01-20T07:26:10.892Z,0.00
2023-01-20T07:27:10.877Z,0.00
2023-01-20T07:28:10.916Z,0.00
2023-01-20T07:29:10.867Z,0.00
2023-01-20T07:30:10.828Z,0.00
2023-01-20T07:31:10.883Z,0.00
2023-01-20T07:32:10.811Z,0.00
2023-01-20T07:33:10.796Z,0.00
2023-01-20T07:34:10.799Z,0.00
2023-01-20T07:35:14.242Z,0.00
2023-01-20T07:36:13.771Z,5.62
2023-01-20T07:37:10.737Z,5.62
2023-01-20T07:38:10.719Z,5.62
2023-01-20T07:39:10.762Z,5.62
2023-01-20T07:40:10.698Z,5.62
2023-01-20T07:41:10.691Z,5.62
2023-01-20T07:42:10.677Z,5.62
2023-01-20T07:43:10.790Z,5.62
2023-01-20T07:44:10.651Z,5.62
2023-01-20T07:45:10.659Z,5.62
2023-01-20T07:46:10.616Z,5.62
2023-01-20T07:47:10.601Z,5.62
2023-01-20T07:48:10.589Z,11.25
2023-01-20T07:49:12.208Z,11.25
2023-01-20T07:50:10.619Z,11.25
2023-01-20T07:51:10.554Z,11.25
2023-01-20T07:52:10.540Z,11.25
2023-01-20T07:53:10.560Z,11.25
2023-01-20T07:54:10.503Z,11.25
2023-01-20T07:55:13.909Z,11.25
2023-01-20T07:56:13.492Z,11.25
2023-01-20T07:57:10.475Z,11.25
2023-01-20T07:58:10.451Z,16.88
2023-01-20T07:59:10.442Z,16.88
2023-01-20T08:00:10.421Z,11.25
2023-01-20T08:01:10.520Z,11.25
2023-01-20T08:02:10.417Z,11.25
2023-01-20T08:03:10.384Z,11.25
2023-01-20T08:04:10.363Z,11.25
2023-01-20T08:05:10.458Z,11.25
2023-01-20T08:06:10.353Z,11.25
2023-01-20T08:07:10.383Z,11.25
2023-01-20T08:08:10.311Z,11.25
2023-01-20T08:09:10.302Z,11.25
2023-01-20T08:10:10.288Z,11.25
2023-01-20T08:11:10.276Z,11.25
2023-01-20T08:12:10.265Z,11.25
2023-01-20T08:13:10.302Z,11.25
2023-01-20T08:14:10.232Z,11.25
2023-01-20T08:15:13.585Z,11.25
2023-01-20T08:16:13.252Z,11.25
2023-01-20T08:17:10.196Z,11.25
2023-01-20T08:18:10.173Z,16.88
2023-01-20T08:19:10.194Z,16.88
2023-01-20T08:20:10.145Z,16.88
2023-01-20T08:21:10.137Z,16.88
2023-01-20T08:22:10.173Z,16.88
2023-01-20T08:23:10.134Z,16.88
2023-01-20T08:24:10.095Z,16.88
2023-01-20T08:25:10.081Z,16.88
2023-01-20T08:26:10.071Z,16.88
2023-01-20T08:27:10.055Z,16.88
2023-01-20T08:28:10.065Z,11.25
2023-01-20T08:29:10.047Z,11.25
2023-01-20T08:30:10.013Z,16.88
2023-01-20T08:31:10.143Z,16.88
2023-01-20T08:32:09.987Z,16.88
2023-01-20T08:33:09.986Z,16.88
2023-01-20T08:34:09.957Z,16.88
2023-01-20T08:35:13.211Z,16.88
2023-01-20T08:36:12.976Z,16.88
2023-01-20T08:37:09.917Z,16.88
2023-01-20T08:38:09.906Z,16.88
2023-01-20T08:39:09.888Z,16.88
2023-01-20T08:40:09.885Z,16.88
2023-01-20T08:41:09.903Z,16.88
2023-01-20T08:42:09.866Z,22.50
2023-01-20T08:43:09.845Z,22.50
2023-01-20T08:44:09.856Z,22.50
2023-01-20T08:45:09.855Z,22.50
2023-01-20T08:46:09.870Z,22.50
2023-01-20T08:47:09.790Z,28.12
2023-01-20T08:48:09.774Z,22.50
2023-01-20T08:49:09.758Z,22.50
2023-01-20T08:50:09.752Z,22.50
2023-01-20T08:51:09.880Z,22.50
2023-01-20T08:52:12.150Z,22.50
2023-01-20T08:53:09.700Z,22.50
2023-01-20T08:54:09.703Z,22.50
2023-01-20T08:55:13.034Z,22.50
2023-01-20T08:56:12.684Z,22.50
2023-01-20T08:57:09.700Z,16.88
2023-01-20T08:58:09.669Z,16.88
2023-01-20T08:59:09.619Z,16.88
2023-01-20T09:00:09.607Z,16.88
2023-01-20T09:01:09.645Z,16.88
2023-01-20T09:02:09.605Z,16.88
2023-01-20T09:03:09.611Z,16.88
2023-01-20T09:04:09.551Z,16.88
2023-01-20T09:05:09.565Z,16.88
2023-01-20T09:06:09.531Z,16.88
2023-01-20T09:07:09.521Z,16.88
2023-01-20T09:08:09.514Z,16.88
2023-01-20T09:09:09.531Z,16.88
2023-01-20T09:10:09.474Z,16.88
2023-01-20T09:11:09.556Z,16.88
2023-01-20T09:12:09.450Z,22.50
2023-01-20T09:13:09.464Z,22.50
2023-01-20T09:14:09.425Z,22.50
2023-01-20T09:15:12.662Z,22.50
2023-01-20T09:16:12.435Z,22.50
2023-01-20T09:17:09.393Z,22.50
2023-01-20T09:18:09.404Z,22.50
2023-01-20T09:19:09.353Z,22.50
2023-01-20T09:20:09.342Z,22.50
2023-01-20T09:21:09.327Z,22.50
2023-01-20T09:22:09.319Z,22.50
2023-01-20T09:23:09.302Z,22.50
2023-01-20T09:24:09.326Z,22.50
2023-01-20T09:25:09.275Z,22.50
2023-01-20T09:26:09.263Z,22.50
2023-01-20T09:27:09.259Z,22.50
2023-01-20T09:28:09.293Z,22.50
2023-01-20T09:29:09.986Z,22.50
2023-01-20T09:30:09.205Z,22.50
2023-01-20T09:31:09.361Z,22.50
2023-01-20T09:32:09.187Z,22.50
2023-01-20T09:33:09.165Z,22.50
2023-01-20T09:34:09.217Z,22.50
2023-01-20T09:35:12.165Z,22.50
2023-01-20T09:36:12.155Z,22.50
2023-01-20T09:37:09.113Z,22.50
2023-01-20T09:38:09.099Z,22.50
2023-01-20T09:39:09.098Z,22.50
2023-01-20T09:40:09.104Z,22.50
2023-01-20T09:41:09.059Z,22.50
2023-01-20T09:42:09.049Z,22.50
2023-01-20T09:43:09.031Z,22.50
2023-01-20T09:44:09.207Z,28.12
2023-01-20T09:45:09.168Z,28.12
2023-01-20T09:46:09.030Z,28.12
2023-01-20T09:47:09.833Z,28.12
2023-01-20T09:48:09.249Z,28.12
2023-01-20T09:49:08.996Z,33.75
2023-01-20T09:50:08.958Z,33.75
2023-01-20T09:51:08.988Z,39.38
2023-01-20T09:52:08.961Z,39.38
2023-01-20T09:53:08.913Z,39.38
2023-01-20T09:54:08.897Z,39.38
2023-01-20T09:55:11.878Z,45.00
2023-01-20T09:56:11.917Z,50.62
2023-01-20T09:57:08.880Z,50.62
2023-01-20T09:58:08.835Z,50.62
2023-01-20T09:59:08.829Z,56.25
2023-01-20T10:00:08.817Z,56.25
2023-01-20T10:01:08.899Z,56.25
2023-01-20T10:02:08.782Z,56.25
2023-01-20T10:03:08.774Z,61.88
2023-01-20T10:04:08.761Z,67.50
2023-01-20T10:05:08.767Z,73.12
2023-01-20T10:06:08.723Z,67.50
2023-01-20T10:07:08.739Z,73.12
2023-01-20T10:08:08.689Z,73.12
2023-01-20T10:09:08.694Z,73.12
2023-01-20T10:10:08.660Z,78.75
2023-01-20T10:11:08.714Z,78.75
2023-01-20T10:12:08.642Z,73.12
2023-01-20T10:13:08.635Z,67.50
2023-01-20T10:14:08.612Z,67.50
2023-01-20T10:15:11.601Z,73.12
2023-01-20T10:16:11.683Z,73.12
2023-01-20T10:17:08.589Z,73.12
2023-01-20T10:18:08.568Z,67.50
2023-01-20T10:19:08.555Z,67.50
2023-01-20T10:20:08.539Z,73.12
2023-01-20T10:21:08.521Z,73.12
2023-01-20T10:22:08.551Z,73.12
2023-01-20T10:23:08.499Z,67.50
2023-01-20T10:24:08.487Z,67.50
2023-01-20T10:25:08.472Z,67.50
2023-01-20T10:26:08.454Z,67.50
2023-01-20T10:27:08.447Z,67.50
2023-01-20T10:28:08.483Z,73.12
2023-01-20T10:29:08.410Z,73.12
2023-01-20T10:30:08.396Z,73.12
2023-01-20T10:31:08.475Z,73.12
2023-01-20T10:32:08.375Z,73.12
2023-01-20T10:33:08.364Z,73.12
2023-01-20T10:34:08.397Z,73.12
2023-01-20T10:35:11.334Z,73.12
2023-01-20T10:36:11.336Z,73.12
2023-01-20T10:37:08.321Z,73.12
2023-01-20T10:38:08.285Z,73.12
2023-01-20T10:39:08.275Z,73.12
2023-01-20T10:40:08.286Z,73.12
2023-01-20T10:41:08.264Z,73.12
2023-01-20T10:42:08.236Z,73.12
2023-01-20T10:43:08.217Z,78.75
2023-01-20T10:44:08.227Z,78.75
2023-01-20T10:45:08.188Z,78.75
2023-01-20T10:46:09.396Z,78.75
2023-01-20T10:47:08.170Z,73.12
2023-01-20T10:48:08.163Z,73.12
2023-01-20T10:49:08.147Z,73.12
2023-01-20T10:50:08.130Z,73.12
2023-01-20T10:51:08.123Z,73.12
2023-01-20T10:52:08.134Z,78.75
2023-01-20T10:53:08.095Z,78.75
2023-01-20T10:54:08.076Z,78.75
2023-01-20T10:55:11.058Z,78.75
2023-01-20T10:56:11.057Z,78.75
2023-01-20T10:57:08.029Z,78.75
2023-01-20T10:58:08.049Z,78.75
2023-01-20T10:59:08.007Z,78.75
2023-01-20T11:00:07.991Z,78.75
2023-01-20T11:01:07.980Z,78.75
2023-01-20T11:02:12.310Z,73.12
2023-01-20T11:03:08.054Z,73.12
2023-01-20T11:04:07.964Z,73.12
2023-01-20T11:05:07.957Z,73.12
2023-01-20T11:06:07.915Z,73.12
2023-01-20T11:07:07.899Z,73.12
2023-01-20T11:08:07.920Z,73.12
2023-01-20T11:09:07.899Z,73.12
2023-01-20T11:10:07.877Z,73.12
2023-01-20T11:11:07.842Z,78.75
2023-01-20T11:12:07.831Z,78.75
2023-01-20T11:13:07.812Z,78.75
2023-01-20T11:14:07.822Z,78.75
2023-01-20T11:15:10.794Z,84.38
2023-01-20T11:16:10.799Z,90.00
2023-01-20T11:17:07.773Z,90.00
2023-01-20T11:18:07.744Z,90.00
2023-01-20T11:19:07.771Z,95.62
2023-01-20T11:20:07.756Z,101.25
2023-01-20T11:21:07.714Z,101.25
2023-01-20T11:22:07.692Z,95.62
2023-01-20T11:23:07.689Z,95.62
2023-01-20T11:24:07.663Z,95.62
2023-01-20T11:25:07.680Z,95.62
2023-01-20T11:26:07.645Z,95.62
2023-01-20T11:27:07.640Z,101.25
2023-01-20T11:28:07.603Z,106.88
2023-01-20T11:29:07.603Z,112.50
2023-01-20T11:30:07.603Z,118.12
2023-01-20T11:31:07.729Z,118.12
2023-01-20T11:32:07.564Z,118.12
2023-01-20T11:33:07.574Z,118.12
2023-01-20T11:34:07.530Z,118.12
2023-01-20T11:35:10.509Z,118.12
2023-01-20T11:36:10.552Z,118.12
2023-01-20T11:37:07.497Z,118.12
2023-01-20T11:38:07.479Z,118.12
2023-01-20T11:39:07.464Z,112.50
2023-01-20T11:40:07.446Z,112.50
2023-01-20T11:41:07.432Z,112.50
2023-01-20T11:42:07.489Z,112.50
2023-01-20T11:43:07.409Z,112.50
2023-01-20T11:44:07.393Z,106.88
2023-01-20T11:45:20.946Z,106.88
2023-01-20T11:46:08.380Z,101.25
2023-01-20T11:47:07.355Z,95.62
2023-01-20T11:48:07.400Z,90.00
2023-01-20T11:49:07.334Z,90.00
2023-01-20T11:50:07.316Z,90.00
2023-01-20T11:51:07.320Z,84.38
2023-01-20T11:52:07.289Z,84.38
2023-01-20T11:53:07.271Z,84.38
2023-01-20T11:54:07.289Z,84.38
2023-01-20T11:55:10.247Z,84.38
2023-01-20T11:56:10.256Z,90.00
2023-01-20T11:57:07.219Z,90.00
2023-01-20T11:58:07.249Z,90.00
2023-01-20T11:59:07.191Z,84.38
2023-01-20T12:00:07.190Z,84.38
2023-01-20T12:01:07.158Z,90.00
2023-01-20T12:02:07.259Z,90.00
2023-01-20T12:03:07.141Z,90.00
2023-01-20T12:04:07.208Z,90.00
2023-01-20T12:05:07.117Z,90.00
2023-01-20T12:06:07.102Z,90.00
2023-01-20T12:07:07.093Z,90.00
2023-01-20T12:08:07.073Z,90.00
2023-01-20T12:09:07.091Z,90.00
2023-01-20T12:10:07.050Z,95.62
2023-01-20T12:11:07.063Z,90.00
2023-01-20T12:12:07.027Z,90.00
2023-01-20T12:13:07.015Z,90.00
2023-01-20T12:14:07.002Z,95.62
2023-01-20T12:15:09.988Z,106.88
2023-01-20T12:16:10.192Z,95.62
2023-01-20T12:17:06.958Z,95.62
2023-01-20T12:18:09.532Z,101.25
2023-01-20T12:19:06.936Z,95.62
2023-01-20T12:20:06.930Z,95.62
2023-01-20T12:21:06.905Z,95.62
2023-01-20T12:22:06.930Z,101.25
2023-01-20T12:23:06.883Z,95.62
2023-01-20T12:24:06.869Z,84.38
2023-01-20T12:25:06.926Z,84.38
2023-01-20T12:26:06.850Z,84.38
2023-01-20T12:27:06.827Z,84.38
2023-01-20T12:28:06.817Z,84.38
2023-01-20T12:29:06.800Z,84.38
2023-01-20T12:30:06.788Z,84.38
2023-01-20T12:31:06.813Z,78.75
2023-01-20T12:32:06.864Z,78.75
2023-01-20T12:33:06.747Z,78.75
2023-01-20T12:34:06.736Z,78.75
2023-01-20T12:35:09.724Z,78.75
2023-01-20T12:36:09.754Z,78.75
2023-01-20T12:37:06.708Z,78.75
2023-01-20T12:38:06.691Z,78.75
2023-01-20T12:39:06.681Z,78.75
2023-01-20T12:40:06.658Z,78.75
2023-01-20T12:41:06.687Z,73.12
2023-01-20T12:42:06.641Z,78.75
2023-01-20T12:43:06.616Z,78.75
2023-01-20T12:44:06.606Z,78.75
2023-01-20T12:45:06.611Z,78.75
2023-01-20T12:46:06.659Z,78.75
2023-01-20T12:47:06.591Z,78.75
2023-01-20T12:48:06.561Z,78.75
2023-01-20T12:49:06.535Z,84.38
2023-01-20T12:50:06.534Z,84.38
2023-01-20T12:51:06.552Z,84.38
2023-01-20T12:52:06.502Z,84.38
2023-01-20T12:53:06.479Z,90.00
2023-01-20T12:54:06.488Z,90.00
2023-01-20T12:55:09.461Z,90.00
2023-01-20T12:56:09.596Z,90.00
2023-01-20T12:57:06.432Z,84.38
2023-01-20T12:58:06.420Z,84.38
2023-01-20T12:59:06.414Z,84.38
2023-01-20T13:00:06.404Z,84.38
2023-01-20T13:01:13.960Z,84.38
2023-01-20T13:02:06.377Z,84.38
2023-01-20T13:03:06.462Z,84.38
2023-01-20T13:04:06.342Z,84.38
2023-01-20T13:05:06.321Z,90.00
2023-01-20T13:06:06.328Z,95.62